Time;durP1;ratioP1;P1;durP2;ratioP2;P2;SDS_P1;SDS_P2;PMS_P1;PMS_P2;Temp;Humidity;BMP_temperature;BMP_pressure;BME280_temperature;BME280_humidity;BME280_pressure;Samples;Min_cycle;Max_cycle;Signal;HPM_P1;HPM_P2
2023/08/13 00:02:43;;;;;;;9.90;5.03;;;24.00;83.60;;;;;;5093406;28;20059;-67
2023/08/13 00:05:47;;;;;;;11.95;4.68;;;24.00;83.30;;;;;;5093459;28;20098;-67
2023/08/13 00:08:51;;;;;;;9.60;4.65;;;23.90;81.10;;;;;;5093714;28;20050;-67
2023/08/13 00:11:55;;;;;;;10.00;4.35;;;24.00;80.70;;;;;;5093515;28;20051;-67
2023/08/13 00:15:00;;;;;;;7.47;4.10;;;24.10;78.50;;;;;;5093184;28;20043;-67
2023/08/13 00:18:04;;;;;;;9.88;4.25;;;24.10;79.40;;;;;;5093535;28;20039;-67
2023/08/13 00:21:08;;;;;;;6.22;3.35;;;24.00;78.80;;;;;;5093256;28;20042;-67
2023/08/13 00:24:12;;;;;;;10.38;3.58;;;23.90;77.20;;;;;;5093212;28;20218;-67
2023/08/13 00:27:16;;;;;;;6.43;3.42;;;24.10;74.10;;;;;;5092852;28;20553;-67
2023/08/13 00:30:20;;;;;;;5.78;3.53;;;24.10;73.60;;;;;;5093245;28;20046;-67
2023/08/13 00:33:24;;;;;;;9.00;3.63;;;24.20;73.80;;;;;;5092324;28;20042;-67
2023/08/13 00:36:28;;;;;;;6.93;3.45;;;24.30;72.60;;;;;;5092328;28;20067;-67
2023/08/13 00:39:32;;;;;;;6.38;3.33;;;24.30;72.70;;;;;;5093031;28;20043;-67
2023/08/13 00:42:36;;;;;;;5.22;2.90;;;24.30;73.00;;;;;;5092812;28;20055;-67
2023/08/13 00:45:40;;;;;;;6.75;3.70;;;24.30;72.70;;;;;;5092626;28;20210;-66
2023/08/13 00:48:44;;;;;;;6.28;3.50;;;24.30;71.70;;;;;;5092139;28;20051;-67
2023/08/13 00:51:48;;;;;;;5.10;2.80;;;24.30;72.10;;;;;;5092014;28;20301;-67
2023/08/13 00:54:52;;;;;;;4.55;3.25;;;24.30;71.40;;;;;;5092858;28;20067;-67
2023/08/13 00:57:56;;;;;;;8.10;3.55;;;24.40;69.90;;;;;;5092425;28;20039;-67
2023/08/13 01:01:00;;;;;;;9.68;3.50;;;24.40;70.80;;;;;;5092139;28;20047;-67
2023/08/13 01:04:04;;;;;;;5.65;3.30;;;24.40;71.80;;;;;;5091695;28;20408;-67
2023/08/13 01:07:33;;;;;;;7.80;3.50;;;24.40;71.10;;;;;;5091658;28;20423;-67
2023/08/13 01:10:37;;;;;;;6.38;3.25;;;24.40;71.00;;;;;;5091316;28;20042;-66
2023/08/13 01:13:54;;;;;;;4.50;3.10;;;24.30;71.40;;;;;;5092097;28;20035;-66
2023/08/13 01:16:59;;;;;;;16.90;3.75;;;24.30;70.40;;;;;;5091295;28;20047;-66
2023/08/13 01:20:07;;;;;;;8.38;3.40;;;24.30;70.90;;;;;;5090887;28;20031;-66
2023/08/13 01:23:11;;;;;;;6.55;3.58;;;24.30;70.30;;;;;;5090896;28;20059;-66
2023/08/13 01:26:21;;;;;;;4.80;3.10;;;24.20;70.60;;;;;;5090831;28;20051;-66
2023/08/13 01:29:35;;;;;;;5.20;3.50;;;24.10;70.20;;;;;;5090762;28;20043;-66
2023/08/13 01:33:00;;;;;;;6.32;3.65;;;24.10;70.80;;;;;;5092016;28;20070;-66
2023/08/13 01:36:06;;;;;;;7.20;3.25;;;24.10;70.70;;;;;;5090891;28;20043;-66
2023/08/13 01:39:11;;;;;;;7.78;3.33;;;24.10;71.00;;;;;;5091003;28;20047;-66
2023/08/13 01:42:17;;;;;;;6.82;3.20;;;23.80;71.90;;;;;;5090685;28;20058;-66
2023/08/13 01:45:21;;;;;;;6.20;3.15;;;23.60;72.40;;;;;;5091855;28;20048;-66
2023/08/13 01:48:25;;;;;;;6.05;3.90;;;23.60;72.50;;;;;;5091793;28;20392;-66
2023/08/13 01:51:29;;;;;;;9.20;3.60;;;23.70;72.80;;;;;;5091414;28;20055;-66
2023/08/13 01:54:33;;;;;;;11.15;3.30;;;23.50;73.40;;;;;;5090678;28;20047;-66
2023/08/13 01:57:38;;;;;;;8.88;3.55;;;23.40;73.80;;;;;;5090791;28;20507;-66
2023/08/13 02:00:42;;;;;;;7.10;2.85;;;23.20;74.40;;;;;;5090360;28;20072;-66
2023/08/13 02:03:46;;;;;;;6.82;3.63;;;23.20;74.90;;;;;;5090702;28;20058;-69
2023/08/13 02:06:50;;;;;;;6.97;4.68;;;23.20;75.50;;;;;;5091446;28;20043;-69
2023/08/13 02:09:54;;;;;;;16.75;4.43;;;23.10;76.10;;;;;;5091134;28;20043;-66
2023/08/13 02:12:59;;;;;;;4.80;3.45;;;23.20;76.50;;;;;;5091157;28;20051;-69
2023/08/13 02:16:03;;;;;;;6.50;4.30;;;23.20;76.00;;;;;;5090494;28;20507;-66
2023/08/13 02:19:07;;;;;;;8.25;3.83;;;23.10;75.90;;;;;;5090403;28;20039;-66
2023/08/13 02:22:11;;;;;;;6.15;3.60;;;23.20;76.80;;;;;;5091008;28;20051;-66
2023/08/13 02:25:15;;;;;;;8.63;3.60;;;;;;;;;;5091270;28;20031;-66
2023/08/13 02:28:19;;;;;;;7.25;4.00;;;22.80;77.20;;;;;;5091155;28;20052;-67
2023/08/13 02:31:23;;;;;;;5.22;3.60;;;22.70;78.00;;;;;;5090223;28;20039;-67
2023/08/13 02:34:31;;;;;;;7.40;4.03;;;22.70;77.60;;;;;;5090859;28;20047;-67
2023/08/13 02:37:35;;;;;;;5.30;4.05;;;;;;;;;;5091036;28;20479;-67
2023/08/13 02:40:39;;;;;;;6.97;4.25;;;22.30;79.10;;;;;;5090759;28;20048;-67
2023/08/13 02:43:54;;;;;;;8.77;4.72;;;22.30;79.60;;;;;;5090236;28;20051;-66
2023/08/13 02:46:58;;;;;;;10.40;4.35;;;22.30;78.90;;;;;;5090976;28;20519;-66
2023/08/13 02:50:03;;;;;;;5.70;4.15;;;22.40;78.20;;;;;;5090960;28;20036;-67
2023/08/13 02:53:08;;;;;;;7.82;3.75;;;22.40;78.60;;;;;;5090013;28;20384;-67
2023/08/13 02:56:12;;;;;;;6.45;4.18;;;22.40;77.20;;;;;;5090817;28;20036;-66
2023/08/13 02:59:16;;;;;;;10.65;3.90;;;22.30;77.60;;;;;;5090768;28;20047;-66
2023/08/13 03:02:20;;;;;;;6.97;3.72;;;22.10;76.40;;;;;;5089827;28;20455;-66
2023/08/13 03:05:24;;;;;;;8.02;4.10;;;22.00;76.80;;;;;;5089631;28;20047;-66
2023/08/13 03:08:28;;;;;;;6.50;3.97;;;22.00;77.20;;;;;;5090374;28;20044;-67
2023/08/13 03:11:32;;;;;;;5.97;4.03;;;22.10;77.50;;;;;;5094731;28;20047;-67
2023/08/13 03:14:36;;;;;;;10.45;3.70;;;22.70;77.20;;;;;;5094626;28;20047;-67
2023/08/13 03:17:40;;;;;;;7.15;4.07;;;22.20;76.30;;;;;;5093538;28;20051;-67
2023/08/13 03:20:44;;;;;;;4.60;4.18;;;22.30;76.00;;;;;;5093545;28;20043;-67
2023/08/13 03:23:48;;;;;;;11.40;4.18;;;22.30;76.00;;;;;;5081580;28;20047;-67
2023/08/13 03:26:53;;;;;;;8.05;4.57;;;;;;;;;;5093594;28;20056;-67
2023/08/13 03:29:57;;;;;;;9.15;4.95;;;21.90;77.30;;;;;;5093339;28;20036;-67
2023/08/13 03:33:01;;;;;;;7.97;4.47;;;21.90;77.60;;;;;;5093067;28;20043;-67
2023/08/13 03:36:05;;;;;;;6.78;4.30;;;21.90;77.90;;;;;;5092988;28;20043;-67
2023/08/13 03:39:09;;;;;;;6.10;4.20;;;21.80;77.90;;;;;;5093777;28;20047;-67
2023/08/13 03:42:13;;;;;;;9.15;4.68;;;21.80;78.80;;;;;;5092944;28;20518;-67
2023/08/13 03:45:17;;;;;;;6.78;4.53;;;22.00;77.30;;;;;;5093167;28;20043;-67
2023/08/13 03:48:21;;;;;;;7.05;4.20;;;22.00;77.80;;;;;;5093992;28;20448;-69
2023/08/13 03:51:25;;;;;;;9.23;4.18;;;21.90;77.50;;;;;;5093604;28;20423;-67
2023/08/13 03:54:30;;;;;;;7.30;4.70;;;22.00;78.30;;;;;;5092910;28;20047;-67
2023/08/13 03:57:34;;;;;;;12.48;5.40;;;22.10;78.70;;;;;;5093501;28;20043;-67
2023/08/13 04:00:37;;;;;;;8.13;4.97;;;21.60;79.00;;;;;;5092595;28;20511;-67
2023/08/13 04:03:41;;;;;;;19.02;5.03;;;21.40;79.70;;;;;;5093398;28;20051;-67
2023/08/13 04:06:46;;;;;;;20.85;5.82;;;21.40;79.90;;;;;;5092492;28;20035;-67
2023/08/13 04:09:50;;;;;;;14.15;4.10;;;20.40;77.40;;;;;;5093258;28;20043;-67
2023/08/13 04:12:55;;;;;;;14.27;4.72;;;21.50;77.80;;;;;;5092752;28;20517;-67
2023/08/13 04:15:59;;;;;;;23.70;4.65;;;21.50;78.00;;;;;;5092667;28;20043;-67
2023/08/13 04:19:04;;;;;;;18.00;4.80;;;21.60;77.50;;;;;;5092491;28;20043;-67
2023/08/13 04:22:08;;;;;;;9.88;4.50;;;21.50;78.00;;;;;;5091974;28;20055;-67
2023/08/13 04:25:12;;;;;;;14.20;4.93;;;21.50;78.10;;;;;;5093222;28;20043;-67
2023/08/13 04:28:16;;;;;;;7.15;4.80;;;21.50;78.80;;;;;;5092208;28;20059;-67
2023/08/13 04:31:22;;;;;;;12.93;4.43;;;21.50;79.00;;;;;;5092467;28;20491;-67
2023/08/13 04:34:26;;;;;;;11.65;4.70;;;21.50;77.50;;;;;;5092081;28;20039;-67
2023/08/13 04:37:30;;;;;;;16.00;6.03;;;21.60;78.10;;;;;;5092188;28;20051;-67
2023/08/13 04:40:35;;;;;;;10.77;4.68;;;21.60;77.00;;;;;;5092196;28;20047;-67
2023/08/13 04:43:40;;;;;;;16.52;5.72;;;21.80;76.60;;;;;;5091909;28;20055;-67
2023/08/13 04:46:44;;;;;;;9.50;6.22;;;21.90;76.90;;;;;;5092113;28;20134;-67
2023/08/13 04:49:48;;;;;;;17.85;8.45;;;22.70;78.30;;;;;;5091938;28;20043;-67
2023/08/13 04:52:52;;;;;;;15.35;6.60;;;22.40;78.20;;;;;;5092044;28;20039;-67
2023/08/13 04:55:56;;;;;;;17.02;6.78;;;22.10;77.30;;;;;;5092766;28;20510;-67
2023/08/13 04:59:01;;;;;;;7.85;5.25;;;23.10;74.90;;;;;;5091852;28;20102;-67
2023/08/13 05:02:05;;;;;;;7.78;4.70;;;23.50;73.80;;;;;;5091501;28;20043;-67
2023/08/13 05:05:09;;;;;;;10.68;4.78;;;24.90;70.90;;;;;;5092294;28;20508;-68
2023/08/13 05:08:13;;;;;;;7.90;4.82;;;26.30;67.80;;;;;;5091624;28;20067;-68
2023/08/13 05:11:18;;;;;;;8.88;3.70;;;27.20;66.20;;;;;;5091531;28;20047;-68
2023/08/13 05:14:23;;;;;;;9.93;4.55;;;28.80;62.50;;;;;;5091600;28;20396;-68
2023/08/13 05:17:26;;;;;;;11.38;4.63;;;29.50;60.70;;;;;;5092207;28;20043;-68
2023/08/13 05:20:30;;;;;;;10.85;4.50;;;29.80;60.50;;;;;;5091189;28;20109;-67
2023/08/13 05:23:35;;;;;;;5.82;4.15;;;30.20;60.10;;;;;;5091822;28;20058;-67
2023/08/13 05:26:38;;;;;;;6.57;3.90;;;30.10;60.80;;;;;;5091823;28;20051;-67
2023/08/13 05:29:42;;;;;;;11.70;4.30;;;31.60;62.00;;;;;;5090841;28;20039;-67
2023/08/13 05:32:46;;;;;;;7.90;4.43;;;29.30;61.20;;;;;;5090222;28;20043;-67
2023/08/13 05:35:51;;;;;;;11.20;4.68;;;28.70;62.90;;;;;;5090747;28;20046;-67
2023/08/13 05:38:55;;;;;;;9.50;4.45;;;28.70;63.60;;;;;;5090686;28;20353;-67
2023/08/13 05:42:00;;;;;;;21.83;5.43;;;28.40;64.70;;;;;;5090512;28;20447;-67
2023/08/13 05:45:04;;;;;;;11.88;5.40;;;28.20;65.10;;;;;;5090944;28;20043;-68
2023/08/13 05:48:09;;;;;;;8.55;4.43;;;27.50;62.60;;;;;;5090795;28;20047;-67
2023/08/13 05:51:13;;;;;;;16.25;5.25;;;26.80;63.30;;;;;;5091699;28;20388;-67
2023/08/13 05:54:17;;;;;;;14.73;5.28;;;26.70;64.50;;;;;;5091433;28;20043;-67
2023/08/13 05:57:22;;;;;;;7.55;5.15;;;26.80;64.50;;;;;;5091429;28;20060;-67
2023/08/13 06:00:25;;;;;;;7.93;4.57;;;26.70;63.80;;;;;;5091283;28;20043;-67
2023/08/13 06:03:29;;;;;;;7.05;4.70;;;26.90;64.70;;;;;;5091409;28;20059;-67
2023/08/13 06:06:33;;;;;;;9.82;5.45;;;26.90;64.50;;;;;;5091416;28;20051;-67
2023/08/13 06:09:37;;;;;;;12.45;4.78;;;27.00;64.80;;;;;;5091409;28;20044;-67
2023/08/13 06:12:41;;;;;;;7.70;5.03;;;27.30;64.20;;;;;;5091498;28;20058;-67
2023/08/13 06:15:45;;;;;;;6.57;5.05;;;27.20;64.50;;;;;;5091500;28;20046;-68
2023/08/13 06:18:49;;;;;;;11.30;5.28;;;27.30;64.60;;;;;;5091001;28;20043;-67
2023/08/13 06:21:53;;;;;;;10.43;5.80;;;27.10;64.90;;;;;;5091037;28;20046;-67
2023/08/13 06:24:57;;;;;;;9.57;5.60;;;27.30;65.60;;;;;;5091343;28;20063;-67
2023/08/13 06:28:01;;;;;;;13.30;5.20;;;27.70;64.70;;;;;;5091140;28;20051;-67
2023/08/13 06:31:05;;;;;;;6.40;4.70;;;28.10;63.40;;;;;;5090695;28;20286;-68
2023/08/13 06:34:10;;;;;;;11.45;4.65;;;28.30;62.60;;;;;;5091027;28;20201;-67
2023/08/13 06:37:13;;;;;;;8.05;4.57;;;28.60;62.00;;;;;;5090945;28;20047;-67
2023/08/13 06:40:17;;;;;;;8.95;4.75;;;28.60;62.40;;;;;;5090591;28;20213;-67
2023/08/13 06:43:21;;;;;;;8.55;4.88;;;28.60;61.70;;;;;;5091131;28;20054;-67
2023/08/13 06:46:25;;;;;;;10.73;4.93;;;28.40;62.00;;;;;;5095202;28;20066;-67
2023/08/13 06:49:29;;;;;;;9.65;5.13;;;28.60;61.80;;;;;;5095185;28;20101;-67
2023/08/13 06:52:33;;;;;;;11.30;5.72;;;29.10;61.20;;;;;;5095138;28;20051;-68
2023/08/13 06:55:37;;;;;;;18.63;5.53;;;29.40;60.80;;;;;;5095121;28;20054;-68
2023/08/13 06:58:41;;;;;;;8.73;4.70;;;29.50;60.80;;;;;;5094946;28;20051;-67
2023/08/13 07:01:45;;;;;;;12.55;5.72;;;29.90;60.40;;;;;;5094111;28;20039;-68
2023/08/13 07:04:50;;;;;;;13.23;5.45;;;30.10;60.00;;;;;;5094937;28;20059;-68
2023/08/13 07:07:54;;;;;;;11.18;5.38;;;30.10;60.00;;;;;;5094565;28;20396;-67
2023/08/13 07:10:59;;;;;;;15.35;5.30;;;30.10;59.50;;;;;;5094610;28;20047;-68
2023/08/13 07:14:03;;;;;;;8.13;4.80;;;30.40;59.60;;;;;;5094540;28;20511;-67
2023/08/13 07:17:07;;;;;;;10.85;4.72;;;30.70;58.60;;;;;;5094703;28;20392;-68
2023/08/13 07:20:13;;;;;;;7.75;4.38;;;30.80;57.40;;;;;;5094573;28;20051;-68
2023/08/13 07:23:17;;;;;;;7.97;4.28;;;31.20;57.40;;;;;;5094474;28;20051;-68
2023/08/13 07:26:21;;;;;;;8.77;4.20;;;31.60;56.90;;;;;;5094105;28;20051;-68
2023/08/13 07:29:25;;;;;;;7.45;4.88;;;32.00;55.80;;;;;;5094450;28;20051;-68
2023/08/13 07:32:30;;;;;;;5.50;4.20;;;31.90;55.20;;;;;;5094305;28;20070;-68
2023/08/13 07:35:33;;;;;;;11.63;4.75;;;32.00;55.70;;;;;;5094330;28;20043;-67
2023/08/13 07:38:37;;;;;;;9.55;4.20;;;32.20;55.40;;;;;;5093948;28;20067;-68
2023/08/13 07:41:42;;;;;;;11.07;4.82;;;32.20;54.20;;;;;;5094189;28;20059;-68
2023/08/13 07:44:47;;;;;;;10.93;4.55;;;32.20;54.80;;;;;;5094062;28;20059;-68
2023/08/13 07:47:51;;;;;;;8.55;4.00;;;32.30;54.20;;;;;;5093917;28;20043;-68
2023/08/13 07:50:55;;;;;;;7.45;4.63;;;32.30;54.40;;;;;;5094482;28;20507;-68
2023/08/13 07:53:59;;;;;;;7.30;4.45;;;32.60;53.60;;;;;;5093643;28;20047;-67
2023/08/13 07:57:04;;;;;;;8.93;4.32;;;32.60;54.40;;;;;;5093161;28;20431;-68
2023/08/13 08:00:10;;;;;;;7.20;4.30;;;32.60;53.30;;;;;;5093818;28;20046;-67
2023/08/13 08:03:17;;;;;;;8.77;4.47;;;32.60;53.40;;;;;;5093600;28;20082;-67
2023/08/13 08:06:21;;;;;;;5.72;4.13;;;32.60;54.00;;;;;;5093776;28;20039;-67
2023/08/13 08:09:25;;;;;;;7.25;4.50;;;32.70;54.00;;;;;;5093638;28;20042;-68
2023/08/13 08:12:29;;;;;;;6.45;4.28;;;32.70;53.60;;;;;;5093468;28;20125;-68
2023/08/13 08:15:34;;;;;;;10.63;4.75;;;32.70;53.60;;;;;;5093608;28;20051;-67
2023/08/13 08:18:38;;;;;;;8.57;4.85;;;32.90;53.70;;;;;;5093580;28;20047;-68
2023/08/13 08:21:42;;;;;;;7.80;4.40;;;32.70;53.90;;;;;;5093296;28;20484;-68
2023/08/13 08:24:46;;;;;;;9.77;4.78;;;32.70;53.50;;;;;;5093224;28;20396;-67
2023/08/13 08:27:50;;;;;;;11.70;5.43;;;32.70;54.00;;;;;;5092756;28;20059;-68
2023/08/13 08:30:54;;;;;;;15.10;5.00;;;32.90;54.60;;;;;;5093025;28;20043;-68
2023/08/13 08:33:58;;;;;;;13.70;4.70;;;32.80;54.00;;;;;;5093262;28;20055;-67
2023/08/13 08:37:04;;;;;;;6.38;4.65;;;32.80;54.50;;;;;;5092989;28;20043;-68
2023/08/13 08:40:09;;;;;;;9.73;4.60;;;32.80;54.00;;;;;;5093026;28;20142;-68
2023/08/13 08:43:15;;;;;;;8.50;4.55;;;32.80;53.90;;;;;;5092797;28;20055;-68
2023/08/13 08:46:20;;;;;;;8.88;4.10;;;32.60;54.20;;;;;;5092862;28;20463;-68
2023/08/13 08:49:25;;;;;;;10.15;4.50;;;32.60;53.60;;;;;;5092210;28;20050;-68
2023/08/13 08:52:34;;;;;;;7.47;4.78;;;32.90;54.20;;;;;;5092623;28;20396;-67
2023/08/13 08:55:40;;;;;;;4.85;3.88;;;33.20;54.00;;;;;;5092431;28;20403;-68
2023/08/13 08:58:44;;;;;;;6.72;4.10;;;33.40;52.80;;;;;;5092355;28;20043;-68
2023/08/13 09:01:47;;;;;;;7.80;4.47;;;33.30;53.30;;;;;;5093105;28;20383;-68
2023/08/13 09:04:51;;;;;;;12.68;4.60;;;32.90;52.20;;;;;;5092591;28;20407;-68
2023/08/13 09:07:55;;;;;;;7.82;4.00;;;32.30;52.60;;;;;;5092088;28;20043;-68
2023/08/13 09:11:00;;;;;;;9.07;4.22;;;32.30;53.40;;;;;;5092130;28;20047;-68
2023/08/13 09:14:04;;;;;;;5.13;3.85;;;32.60;52.90;;;;;;5092452;28;20043;-68
2023/08/13 09:17:10;;;;;;;5.90;4.45;;;32.60;52.50;;;;;;5092129;28;20506;-68
2023/08/13 09:20:21;;;;;;;5.65;4.03;;;32.40;52.20;;;;;;5091907;28;20051;-68
2023/08/13 09:23:25;;;;;;;4.50;4.00;;;32.10;51.70;;;;;;5091977;28;20059;-68
2023/08/13 09:26:29;;;;;;;4.05;3.50;;;32.10;52.70;;;;;;5091779;28;20055;-68
2023/08/13 09:29:34;;;;;;;5.68;4.05;;;32.20;52.40;;;;;;5091883;28;20217;-68
2023/08/13 09:32:40;;;;;;;8.93;3.97;;;32.10;52.10;;;;;;5091905;28;20047;-68
2023/08/13 09:35:44;;;;;;;5.80;4.00;;;32.10;52.80;;;;;;5091890;28;20047;-68
2023/08/13 09:38:48;;;;;;;4.90;3.90;;;32.10;52.70;;;;;;5091701;28;20043;-68
2023/08/13 09:41:53;;;;;;;4.60;4.07;;;32.00;52.70;;;;;;5092018;28;20046;-68
2023/08/13 09:45:02;;;;;;;5.32;4.10;;;31.90;52.90;;;;;;5091592;28;20050;-67
2023/08/13 09:48:10;;;;;;;5.55;3.85;;;31.90;52.40;;;;;;5091467;28;20047;-68
2023/08/13 09:51:15;;;;;;;8.35;4.40;;;32.10;52.90;;;;;;5091845;28;20131;-67
2023/08/13 09:54:37;;;;;;;5.90;3.80;;;32.30;53.70;;;;;;5091695;28;20042;-68
2023/08/13 09:57:43;;;;;;;6.95;4.32;;;32.50;51.90;;;;;;5091698;28;20047;-68
2023/08/13 10:00:47;;;;;;;5.93;4.15;;;32.60;51.70;;;;;;5091273;28;20055;-68
2023/08/13 10:03:51;;;;;;;7.60;4.25;;;32.60;51.10;;;;;;5091275;28;20051;-68
2023/08/13 10:06:56;;;;;;;10.27;4.20;;;32.50;51.60;;;;;;5091094;28;20051;-67
2023/08/13 10:10:02;;;;;;;6.85;3.83;;;32.40;51.40;;;;;;5091182;28;20066;-68
2023/08/13 10:13:07;;;;;;;9.10;4.00;;;32.50;51.60;;;;;;5090979;28;20039;-68
2023/08/13 10:16:12;;;;;;;6.15;4.03;;;32.60;51.40;;;;;;5091192;28;20046;-68
2023/08/13 10:19:17;;;;;;;8.10;4.30;;;32.50;51.50;;;;;;5090456;28;20047;-68
2023/08/13 10:22:37;;;;;;;5.88;3.50;;;32.50;51.30;;;;;;5091131;28;20052;-67
2023/08/13 10:25:44;;;;;;;5.75;3.88;;;32.30;51.00;;;;;;5090885;28;20055;-67
2023/08/13 10:28:55;;;;;;;7.82;4.70;;;32.30;51.80;;;;;;5089893;28;20396;-68
2023/08/13 10:32:00;;;;;;;15.02;4.43;;;32.20;51.20;;;;;;5090830;28;20439;-68
2023/08/13 10:35:22;;;;;;;7.68;4.18;;;32.10;51.90;;;;;;5091149;28;20039;-68
2023/08/13 10:38:33;;;;;;;7.85;4.38;;;32.00;51.80;;;;;;5090642;28;20059;-68
2023/08/13 10:41:37;;;;;;;6.30;4.68;;;32.10;52.00;;;;;;5090914;28;20387;-68
2023/08/13 10:44:41;;;;;;;7.28;3.95;;;32.30;52.60;;;;;;5090290;28;20059;-67
2023/08/13 10:47:52;;;;;;;4.80;4.00;;;32.40;52.30;;;;;;5090677;28;20047;-68
2023/08/13 10:50:58;;;;;;;6.00;4.03;;;32.50;52.10;;;;;;5090829;28;20092;-68
2023/08/13 10:54:02;;;;;;;8.18;4.35;;;32.50;51.70;;;;;;5090757;28;20111;-68
2023/08/13 10:57:06;;;;;;;7.25;4.47;;;32.30;51.90;;;;;;5090962;28;20095;-68
2023/08/13 11:00:14;;;;;;;9.57;4.47;;;32.30;52.50;;;;;;5090473;28;20047;-68
2023/08/13 11:03:22;;;;;;;6.53;5.40;;;32.40;52.20;;;;;;5090369;28;20502;-68
2023/08/13 11:06:30;;;;;;;18.13;6.88;;;32.50;52.50;;;;;;5090551;28;20487;-68
2023/08/13 11:09:33;;;;;;;6.43;5.20;;;32.60;51.80;;;;;;5090751;28;20528;-68
2023/08/13 11:12:38;;;;;;;11.20;4.20;;;32.50;51.90;;;;;;5090796;28;20047;-68
2023/08/13 11:15:53;;;;;;;11.35;3.45;;;32.60;52.70;;;;;;5090783;28;20047;-68
2023/08/13 11:18:59;;;;;;;5.32;3.65;;;32.60;52.80;;;;;;5090406;28;20039;-68
2023/08/13 11:22:03;;;;;;;9.00;3.65;;;32.50;52.50;;;;;;5090736;28;20396;-68
2023/08/13 11:25:08;;;;;;;6.80;4.00;;;32.40;51.70;;;;;;5090412;28;20059;-68
2023/08/13 11:28:21;;;;;;;8.57;4.22;;;32.10;51.90;;;;;;5090372;28;20047;-69
2023/08/13 11:31:25;;;;;;;13.18;4.05;;;32.00;52.40;;;;;;5094055;28;20039;-68
2023/08/13 11:34:29;;;;;;;6.63;3.83;;;32.10;52.90;;;;;;5094258;28;20070;-67
2023/08/13 11:37:34;;;;;;;5.13;3.67;;;32.00;52.80;;;;;;5094462;28;20047;-68
2023/08/13 11:40:38;;;;;;;4.40;3.50;;;32.00;52.90;;;;;;5094408;28;20059;-68
2023/08/13 11:43:43;;;;;;;5.05;3.17;;;32.00;52.50;;;;;;5094217;28;20059;-68
2023/08/13 11:47:05;;;;;;;8.55;3.25;;;32.10;52.90;;;;;;5094045;28;20047;-68
2023/08/13 11:50:21;;;;;;;4.53;2.90;;;32.20;52.40;;;;;;5093819;28;20047;-68
2023/08/13 11:53:26;;;;;;;6.40;2.95;;;32.20;52.50;;;;;;5094110;28;20047;-68
2023/08/13 11:56:31;;;;;;;3.95;3.30;;;32.30;52.80;;;;;;5094052;28;20039;-68
2023/08/13 11:59:35;;;;;;;3.03;2.72;;;32.30;51.40;;;;;;5093886;28;20043;-68
2023/08/13 12:02:38;;;;;;;5.68;3.22;;;32.10;52.00;;;;;;5094042;28;20038;-68
2023/08/13 12:05:43;;;;;;;3.33;3.00;;;32.10;52.90;;;;;;5093524;28;20055;-68
2023/08/13 12:08:47;;;;;;;5.65;2.65;;;32.20;52.80;;;;;;5093495;28;20043;-68
2023/08/13 12:11:54;;;;;;;3.83;3.42;;;32.10;52.40;;;;;;5093412;28;20043;-68
2023/08/13 12:14:58;;;;;;;6.68;3.00;;;32.10;52.90;;;;;;5093410;28;20039;-68
2023/08/13 12:18:02;;;;;;;4.60;3.20;;;32.10;53.20;;;;;;5093638;28;20502;-68
2023/08/13 12:21:06;;;;;;;5.43;3.00;;;32.20;51.70;;;;;;5093253;28;20054;-68
2023/08/13 12:24:10;;;;;;;4.30;2.42;;;32.20;51.50;;;;;;5093190;28;20050;-68
2023/08/13 12:27:14;;;;;;;3.90;3.10;;;32.20;52.80;;;;;;5093055;28;20051;-68
2023/08/13 12:30:19;;;;;;;3.63;3.00;;;32.10;52.40;;;;;;5092991;28;20043;-68
2023/08/13 12:33:23;;;;;;;4.97;3.28;;;32.20;53.80;;;;;;5093347;28;20043;-68
2023/08/13 12:36:27;;;;;;;5.93;3.10;;;32.20;53.70;;;;;;5092966;28;20043;-68
2023/08/13 12:39:31;;;;;;;3.90;2.83;;;32.30;52.80;;;;;;5092904;28;20063;-68
2023/08/13 12:42:36;;;;;;;4.50;2.60;;;32.30;52.80;;;;;;5092371;28;20043;-68
2023/08/13 12:45:40;;;;;;;3.22;2.92;;;32.40;52.80;;;;;;5093226;28;20118;-68
2023/08/13 12:48:43;;;;;;;5.45;2.75;;;32.40;53.90;;;;;;5092918;28;20039;-68
2023/08/13 12:51:48;;;;;;;2.72;2.50;;;32.40;52.90;;;;;;5092761;28;20039;-68
2023/08/13 12:54:51;;;;;;;4.03;3.47;;;32.40;54.20;;;;;;5092672;28;20043;-67
2023/08/13 12:57:55;;;;;;;7.93;4.43;;;32.40;57.10;;;;;;5092827;28;20043;-68
2023/08/13 13:01:00;;;;;;;10.82;4.18;;;32.40;62.20;;;;;;5092805;28;20055;-67
2023/08/13 13:04:04;;;;;;;5.88;4.35;;;32.40;62.60;;;;;;5092641;28;20055;-68
2023/08/13 13:07:08;;;;;;;7.63;4.30;;;32.30;61.30;;;;;;5092331;28;20506;-68
2023/08/13 13:10:12;;;;;;;22.17;5.28;;;32.30;60.90;;;;;;5092546;28;20051;-68
2023/08/13 13:13:16;;;;;;;9.55;3.97;;;32.20;59.20;;;;;;5092501;28;20071;-68
2023/08/13 13:16:20;;;;;;;4.85;4.25;;;32.10;58.80;;;;;;5092452;28;20043;-68
2023/08/13 13:19:24;;;;;;;5.45;4.15;;;32.10;59.60;;;;;;5092453;28;20043;-68
2023/08/13 13:22:28;;;;;;;5.38;4.10;;;32.00;60.60;;;;;;5091247;28;20047;-68
2023/08/13 13:25:32;;;;;;;7.35;3.97;;;31.90;61.00;;;;;;5092171;28;20063;-68
2023/08/13 13:28:38;;;;;;;5.32;4.47;;;31.90;60.40;;;;;;5092105;28;20051;-68
2023/08/13 13:31:44;;;;;;;10.55;4.30;;;31.80;61.20;;;;;;5091902;28;20389;-68
2023/08/13 13:34:48;;;;;;;10.20;4.00;;;31.70;60.00;;;;;;5091683;28;20043;-68
2023/08/13 13:37:53;;;;;;;6.20;4.55;;;31.60;59.80;;;;;;5091701;28;20035;-68
2023/08/13 13:40:57;;;;;;;5.50;3.75;;;31.50;57.40;;;;;;5091517;28;20058;-68
2023/08/13 13:44:01;;;;;;;6.95;4.15;;;31.50;58.70;;;;;;5091665;28;20047;-68
2023/08/13 13:47:05;;;;;;;10.25;4.55;;;31.50;60.00;;;;;;5091387;28;20399;-68
2023/08/13 13:50:09;;;;;;;5.55;4.20;;;31.40;58.90;;;;;;5091556;28;20395;-68
2023/08/13 13:53:13;;;;;;;6.40;3.85;;;31.40;58.70;;;;;;5090617;28;20043;-68
2023/08/13 13:56:17;;;;;;;9.40;4.10;;;31.40;59.20;;;;;;5091464;28;20396;-68
2023/08/13 13:59:21;;;;;;;6.30;4.40;;;31.40;58.70;;;;;;5091187;28;20047;-68
2023/08/13 14:02:25;;;;;;;5.15;4.05;;;31.30;57.90;;;;;;5091262;28;20043;-68
2023/08/13 14:05:29;;;;;;;4.78;4.22;;;31.20;57.70;;;;;;5091318;28;20055;-68
2023/08/13 14:08:33;;;;;;;4.53;3.83;;;31.30;58.00;;;;;;5091344;28;20043;-68
2023/08/13 14:11:37;;;;;;;13.43;4.63;;;31.20;58.70;;;;;;5091458;28;20487;-68
2023/08/13 14:14:41;;;;;;;6.85;4.88;;;31.30;60.70;;;;;;5091354;28;20047;-68
2023/08/13 14:17:45;;;;;;;13.05;5.28;;;31.30;60.80;;;;;;5091389;28;20043;-68
2023/08/13 14:20:50;;;;;;;6.28;4.53;;;31.30;61.50;;;;;;5091269;28;20511;-68
2023/08/13 14:23:55;;;;;;;6.20;3.97;;;31.20;61.90;;;;;;5091169;28;20051;-68
2023/08/13 14:26:59;;;;;;;9.13;4.50;;;31.20;62.40;;;;;;5090847;28;20210;-68
2023/08/13 14:30:02;;;;;;;17.90;4.97;;;31.10;62.80;;;;;;5091395;28;20051;-68
2023/08/13 14:33:06;;;;;;;6.55;4.47;;;31.10;63.00;;;;;;5078659;28;20039;-68
2023/08/13 14:36:10;;;;;;;4.82;4.03;;;31.10;63.10;;;;;;5091114;28;20301;-68
2023/08/13 14:39:15;;;;;;;5.13;4.05;;;31.10;63.80;;;;;;5090920;28;20047;-68
2023/08/13 14:42:19;;;;;;;5.13;4.00;;;31.10;63.90;;;;;;5091147;28;20054;-68
2023/08/13 14:45:22;;;;;;;15.60;4.85;;;31.10;64.10;;;;;;5090737;28;20114;-68
2023/08/13 14:48:26;;;;;;;7.63;4.60;;;31.10;64.40;;;;;;5091015;28;20054;-68
2023/08/13 14:51:31;;;;;;;7.53;4.45;;;31.10;64.30;;;;;;5090786;28;20408;-68
2023/08/13 14:54:35;;;;;;;5.10;4.30;;;31.00;64.70;;;;;;5091228;28;20043;-68
2023/08/13 14:57:39;;;;;;;6.80;4.40;;;31.00;64.70;;;;;;5090957;28;20444;-67
2023/08/13 15:00:43;;;;;;;7.15;4.78;;;30.90;64.90;;;;;;5090704;28;20043;-68
2023/08/13 15:03:47;;;;;;;11.57;4.90;;;30.80;65.10;;;;;;5090821;28;20080;-68
2023/08/13 15:06:51;;;;;;;5.85;4.40;;;30.80;65.30;;;;;;5094886;28;20043;-68
2023/08/13 15:09:55;;;;;;;9.07;4.57;;;30.80;64.80;;;;;;5094591;28;20043;-68
2023/08/13 15:12:58;;;;;;;7.03;4.45;;;30.80;64.80;;;;;;5094532;28;20098;-68
2023/08/13 15:16:02;;;;;;;10.65;4.57;;;30.70;64.60;;;;;;5094844;28;20412;-68
2023/08/13 15:19:07;;;;;;;10.63;4.47;;;30.70;64.60;;;;;;5094356;28;20050;-68
2023/08/13 15:22:11;;;;;;;9.93;5.07;;;30.70;64.50;;;;;;5094638;28;20043;-67
2023/08/13 15:25:15;;;;;;;6.03;4.57;;;30.60;65.10;;;;;;5094303;28;20510;-67
2023/08/13 15:28:19;;;;;;;4.63;4.22;;;30.60;65.60;;;;;;5094407;28;20051;-68
2023/08/13 15:31:23;;;;;;;6.68;5.15;;;30.60;66.00;;;;;;5094317;28;20047;-67
2023/08/13 15:34:26;;;;;;;15.10;6.32;;;30.60;66.50;;;;;;5094320;28;20059;-67
2023/08/13 15:37:30;;;;;;;9.90;5.57;;;30.60;67.10;;;;;;5094614;28;20114;-68
2023/08/13 15:40:34;;;;;;;12.95;4.95;;;30.60;67.80;;;;;;5094284;28;20391;-68
2023/08/13 15:43:38;;;;;;;8.15;4.82;;;30.50;68.30;;;;;;5094090;28;20038;-68
2023/08/13 15:46:42;;;;;;;6.53;4.90;;;30.50;68.70;;;;;;5094418;28;20054;-67
2023/08/13 15:49:46;;;;;;;6.50;4.75;;;30.40;69.10;;;;;;5094121;28;20039;-67
2023/08/13 15:52:52;;;;;;;8.55;4.90;;;30.40;69.30;;;;;;5093901;28;20051;-67
2023/08/13 15:55:56;;;;;;;29.27;5.90;;;30.40;69.30;;;;;;5093608;28;20423;-67
2023/08/13 15:59:00;;;;;;;9.15;5.10;;;30.40;69.20;;;;;;5093724;28;20385;-67
2023/08/13 16:02:04;;;;;;;10.32;4.68;;;30.50;69.40;;;;;;5093492;28;20039;-67